sensor_id;sensor_type;location;lat;lon;timestamp;pressure;altitude;pressure_sealevel;temperature;humidity
58385;BME280;44185;47.844;8.966;2024-03-23T00:52:51;62401.25;;;4.82;100.00
58385;BME280;44185;47.844;8.966;2024-03-23T00:55:16;62408.44;;;4.88;100.00
58385;BME280;44185;47.844;8.966;2024-03-23T00:57:42;62395.16;;;4.76;100.00
58385;BME280;44185;47.844;8.966;2024-03-23T01:00:08;62407.34;;;4.87;100.00
58385;BME280;44185;47.844;8.966;2024-03-23T01:02:33;62412.31;;;4.92;100.00
58385;BME280;44185;47.844;8.966;2024-03-23T01:04:59;62412.88;;;4.93;100.00
58385;BME280;44185;47.844;8.966;2024-03-23T01:07:24;62415.66;;;4.95;100.00
58385;BME280;44185;47.844;8.966;2024-03-23T01:09:51;62421.19;;;5.00;100.00
58385;BME280;44185;47.844;8.966;2024-03-23T01:12:16;62433.38;;;5.12;100.00
58385;BME280;44185;47.844;8.966;2024-03-23T01:14:42;62440.03;;;5.18;100.00
58385;BME280;44185;47.844;8.966;2024-03-23T01:17:07;62442.22;;;5.20;100.00
58385;BME280;44185;47.844;8.966;2024-03-23T01:19:33;62439.47;;;5.18;100.00
58385;BME280;44185;47.844;8.966;2024-03-23T01:21:58;62443.91;;;5.22;100.00
58385;BME280;44185;47.844;8.966;2024-03-23T01:24:23;62427.84;;;5.07;100.00
58385;BME280;44185;47.844;8.966;2024-03-23T01:26:50;62437.25;;;5.16;100.00
58385;BME280;44185;47.844;8.966;2024-03-23T01:29:16;62433.91;;;5.12;100.00
58385;BME280;44185;47.844;8.966;2024-03-23T01:31:41;62439.47;;;5.18;100.00
58385;BME280;44185;47.844;8.966;2024-03-23T01:34:07;62440.59;;;5.19;100.00
58385;BME280;44185;47.844;8.966;2024-03-23T01:36:32;62438.94;;;5.17;100.00
58385;BME280;44185;47.844;8.966;2024-03-23T01:38:57;62428.38;;;5.07;100.00
58385;BME280;44185;47.844;8.966;2024-03-23T01:41:24;62424.53;;;5.04;100.00
58385;BME280;44185;47.844;8.966;2024-03-23T01:43:51;62433.91;;;5.12;100.00
58385;BME280;44185;47.844;8.966;2024-03-23T01:46:16;62436.16;;;5.15;100.00
58385;BME280;44185;47.844;8.966;2024-03-23T01:48:42;62425.63;;;5.05;100.00
58385;BME280;44185;47.844;8.966;2024-03-23T01:51:08;62422.31;;;5.02;100.00
58385;BME280;44185;47.844;8.966;2024-03-23T01:53:33;62417.84;;;4.97;100.00
58385;BME280;44185;47.844;8.966;2024-03-23T01:55:59;62392.38;;;4.73;100.00
58385;BME280;44185;47.844;8.966;2024-03-23T01:58:24;62399.59;;;4.80;100.00
58385;BME280;44185;47.844;8.966;2024-03-23T02:00:51;62407.91;;;4.88;100.00
58385;BME280;44185;47.844;8.966;2024-03-23T02:03:23;62416.22;;;4.96;100.00
58385;BME280;44185;47.844;8.966;2024-03-23T02:05:48;62402.91;;;4.83;100.00
58385;BME280;44185;47.844;8.966;2024-03-23T02:08:14;62401.81;;;4.82;100.00
58385;BME280;44185;47.844;8.966;2024-03-23T02:10:39;62401.81;;;4.82;100.00
58385;BME280;44185;47.844;8.966;2024-03-23T02:13:05;62397.91;;;4.78;100.00
58385;BME280;44185;47.844;8.966;2024-03-23T02:15:30;62383.50;;;4.65;100.00
58385;BME280;44185;47.844;8.966;2024-03-23T02:17:57;62389.59;;;4.71;100.00
58385;BME280;44185;47.844;8.966;2024-03-23T02:20:22;62390.16;;;4.71;100.00
58385;BME280;44185;47.844;8.966;2024-03-23T02:22:51;62405.13;;;4.85;100.00
58385;BME280;44185;47.844;8.966;2024-03-23T02:25:17;62418.97;;;4.98;100.00
58385;BME280;44185;47.844;8.966;2024-03-23T02:27:42;62415.66;;;4.95;100.00
58385;BME280;44185;47.844;8.966;2024-03-23T02:30:08;62413.97;;;4.94;100.00
58385;BME280;44185;47.844;8.966;2024-03-23T02:32:34;62403.47;;;4.84;100.00
58385;BME280;44185;47.844;8.966;2024-03-23T02:34:59;62412.88;;;4.93;100.00
58385;BME280;44185;47.844;8.966;2024-03-23T02:37:24;62411.75;;;4.92;100.00
58385;BME280;44185;47.844;8.966;2024-03-23T02:39:51;62407.34;;;4.87;100.00
58385;BME280;44185;47.844;8.966;2024-03-23T02:42:17;62414.53;;;4.94;100.00
58385;BME280;44185;47.844;8.966;2024-03-23T02:44:42;62418.41;;;4.98;100.00
58385;BME280;44185;47.844;8.966;2024-03-23T02:47:07;62399.03;;;4.80;100.00
58385;BME280;44185;47.844;8.966;2024-03-23T02:49:33;62419.53;;;4.99;100.00
58385;BME280;44185;47.844;8.966;2024-03-23T02:51:58;62420.63;;;5.00;100.00
58385;BME280;44185;47.844;8.966;2024-03-23T02:54:24;62430.63;;;5.09;100.00
58385;BME280;44185;47.844;8.966;2024-03-23T02:56:50;62433.38;;;5.12;100.00
58385;BME280;44185;47.844;8.966;2024-03-23T02:59:16;62430.63;;;5.09;100.00
58385;BME280;44185;47.844;8.966;2024-03-23T03:01:42;62422.84;;;5.02;100.00
58385;BME280;44185;47.844;8.966;2024-03-23T03:04:07;62421.75;;;5.01;100.00
58385;BME280;44185;47.844;8.966;2024-03-23T03:06:33;62424.53;;;5.04;100.00
58385;BME280;44185;47.844;8.966;2024-03-23T03:08:58;62404.00;;;4.84;100.00
58385;BME280;44185;47.844;8.966;2024-03-23T03:11:24;62418.41;;;4.98;100.00
58385;BME280;44185;47.844;8.966;2024-03-23T03:13:51;62402.91;;;4.83;100.00
58385;BME280;44185;47.844;8.966;2024-03-23T03:16:16;62423.41;;;5.03;100.00
58385;BME280;44185;47.844;8.966;2024-03-23T03:18:42;62428.38;;;5.07;100.00
58385;BME280;44185;47.844;8.966;2024-03-23T03:21:07;62420.63;;;5.00;100.00
58385;BME280;44185;47.844;8.966;2024-03-23T03:23:33;62428.38;;;5.07;100.00
58385;BME280;44185;47.844;8.966;2024-03-23T03:25:58;62432.81;;;5.11;100.00
58385;BME280;44185;47.844;8.966;2024-03-23T03:28:24;62429.50;;;5.08;100.00
58385;BME280;44185;47.844;8.966;2024-03-23T03:30:50;62402.91;;;4.83;100.00
58385;BME280;44185;47.844;8.966;2024-03-23T03:33:16;62376.88;;;4.59;100.00
58385;BME280;44185;47.844;8.966;2024-03-23T03:35:42;62384.06;;;4.65;100.00
58385;BME280;44185;47.844;8.966;2024-03-23T03:38:07;62375.22;;;4.57;100.00
58385;BME280;44185;47.844;8.966;2024-03-23T03:40:33;62382.97;;;4.64;100.00
58385;BME280;44185;47.844;8.966;2024-03-23T03:42:58;62394.59;;;4.75;100.00
58385;BME280;44185;47.844;8.966;2024-03-23T03:45:24;62399.59;;;4.80;100.00
58385;BME280;44185;47.844;8.966;2024-03-23T03:47:50;62412.31;;;4.92;100.00
58385;BME280;44185;47.844;8.966;2024-03-23T03:50:16;62420.63;;;5.00;100.00
58385;BME280;44185;47.844;8.966;2024-03-23T03:52:41;62425.63;;;5.05;100.00
58385;BME280;44185;47.844;8.966;2024-03-23T03:55:13;62427.28;;;5.06;100.00
58385;BME280;44185;47.844;8.966;2024-03-23T03:57:38;62432.81;;;5.11;100.00
58385;BME280;44185;47.844;8.966;2024-03-23T04:00:05;62429.50;;;5.08;100.00
58385;BME280;44185;47.844;8.966;2024-03-23T04:02:31;62421.19;;;5.00;100.00
58385;BME280;44185;47.844;8.966;2024-03-23T04:04:57;62415.09;;;4.95;100.00
58385;BME280;44185;47.844;8.966;2024-03-23T04:07:23;62414.53;;;4.94;100.00
58385;BME280;44185;47.844;8.966;2024-03-23T04:09:48;62420.06;;;4.99;100.00
58385;BME280;44185;47.844;8.966;2024-03-23T04:12:14;62417.84;;;4.97;100.00
58385;BME280;44185;47.844;8.966;2024-03-23T04:14:39;62427.84;;;5.07;100.00
58385;BME280;44185;47.844;8.966;2024-03-23T04:17:05;62428.94;;;5.08;100.00
58385;BME280;44185;47.844;8.966;2024-03-23T04:19:30;62430.63;;;5.09;100.00
58385;BME280;44185;47.844;8.966;2024-03-23T04:21:57;62416.75;;;4.96;100.00
58385;BME280;44185;47.844;8.966;2024-03-23T04:24:22;62404.56;;;4.85;100.00
58385;BME280;44185;47.844;8.966;2024-03-23T04:26:48;62412.31;;;4.92;100.00
58385;BME280;44185;47.844;8.966;2024-03-23T04:29:13;62409.56;;;4.89;100.00
58385;BME280;44185;47.844;8.966;2024-03-23T04:31:39;62415.09;;;4.95;100.00
58385;BME280;44185;47.844;8.966;2024-03-23T04:34:04;62417.31;;;4.97;100.00
58385;BME280;44185;47.844;8.966;2024-03-23T04:36:30;62413.44;;;4.93;100.00
58385;BME280;44185;47.844;8.966;2024-03-23T04:38:58;62421.75;;;5.01;100.00
58385;BME280;44185;47.844;8.966;2024-03-23T04:41:24;62414.16;;;4.96;100.00
58385;BME280;44185;47.844;8.966;2024-03-23T04:43:49;62415.09;;;4.95;100.00
58385;BME280;44185;47.844;8.966;2024-03-23T04:46:15;62409.00;;;4.89;100.00
58385;BME280;44185;47.844;8.966;2024-03-23T04:48:40;62390.72;;;4.72;100.00
58385;BME280;44185;47.844;8.966;2024-03-23T04:51:05;62392.38;;;4.73;100.00
58385;BME280;44185;47.844;8.966;2024-03-23T04:53:31;62392.38;;;4.73;100.00
58385;BME280;44185;47.844;8.966;2024-03-23T04:55:58;62406.22;;;4.86;100.00
58385;BME280;44185;47.844;8.966;2024-03-23T04:58:24;62400.13;;;4.81;100.00
58385;BME280;44185;47.844;8.966;2024-03-23T05:00:53;62407.91;;;4.88;100.00
58385;BME280;44185;47.844;8.966;2024-03-23T05:03:19;62413.97;;;4.94;100.00
58385;BME280;44185;47.844;8.966;2024-03-23T05:05:44;62420.06;;;4.99;100.00
58385;BME280;44185;47.844;8.966;2024-03-23T05:08:10;62430.06;;;5.09;100.00
58385;BME280;44185;47.844;8.966;2024-03-23T05:10:35;62437.25;;;5.16;100.00
58385;BME280;44185;47.844;8.966;2024-03-23T05:13:02;62446.69;;;5.25;100.00
58385;BME280;44185;47.844;8.966;2024-03-23T05:15:27;62455.00;;;5.32;100.00
58385;BME280;44185;47.844;8.966;2024-03-23T05:17:53;62461.09;;;5.38;100.00
58385;BME280;44185;47.844;8.966;2024-03-23T05:20:19;62462.75;;;5.40;100.00
58385;BME280;44185;47.844;8.966;2024-03-23T05:22:44;62476.03;;;5.52;100.00
58385;BME280;44185;47.844;8.966;2024-03-23T05:25:09;62475.50;;;5.52;100.00
58385;BME280;44185;47.844;8.966;2024-03-23T05:27:35;62486.59;;;5.62;100.00
58385;BME280;44185;47.844;8.966;2024-03-23T05:30:02;62501.00;;;5.76;100.00
58385;BME280;44185;47.844;8.966;2024-03-23T05:32:27;62512.09;;;5.86;100.00
58385;BME280;44185;47.844;8.966;2024-03-23T05:34:54;62524.84;;;5.98;100.00
58385;BME280;44185;47.844;8.966;2024-03-23T05:37:19;62534.84;;;6.08;100.00
58385;BME280;44185;47.844;8.966;2024-03-23T05:39:44;62548.72;;;6.21;100.00
58385;BME280;44185;47.844;8.966;2024-03-23T05:42:10;62554.25;;;6.26;100.00
58385;BME280;44185;47.844;8.966;2024-03-23T05:44:35;62555.38;;;6.27;100.00
58385;BME280;44185;47.844;8.966;2024-03-23T05:47:02;62554.44;;;6.29;100.00
58385;BME280;44185;47.844;8.966;2024-03-23T05:49:27;62582.00;;;6.52;100.00
58385;BME280;44185;47.844;8.966;2024-03-23T05:51:53;62583.09;;;6.53;100.00
58385;BME280;44185;47.844;8.966;2024-03-23T05:54:18;62580.31;;;6.51;100.00
58385;BME280;44185;47.844;8.966;2024-03-23T05:56:44;62583.09;;;6.53;100.00
58385;BME280;44185;47.844;8.966;2024-03-23T05:59:09;62593.09;;;6.63;100.00
58385;BME280;44185;47.844;8.966;2024-03-23T06:01:35;62603.63;;;6.73;100.00
58385;BME280;44185;47.844;8.966;2024-03-23T06:04:01;62606.41;;;6.75;100.00
58385;BME280;44185;47.844;8.966;2024-03-23T06:06:27;62614.72;;;6.83;100.00
58385;BME280;44185;47.844;8.966;2024-03-23T06:08:52;62624.72;;;6.93;100.00
58385;BME280;44185;47.844;8.966;2024-03-23T06:11:18;62629.72;;;6.97;100.00
58385;BME280;44185;47.844;8.966;2024-03-23T06:13:43;62644.69;;;7.11;100.00
58385;BME280;44185;47.844;8.966;2024-03-23T06:16:09;62654.16;;;7.20;100.00
58385;BME280;44185;47.844;8.966;2024-03-23T06:18:34;62658.56;;;7.25;100.00
58385;BME280;44185;47.844;8.966;2024-03-23T06:21:01;62665.41;;;7.33;100.00
58385;BME280;44185;47.844;8.966;2024-03-23T06:23:27;62672.09;;;7.40;100.00
58385;BME280;44185;47.844;8.966;2024-03-23T06:25:52;62682.47;;;7.47;100.00
58385;BME280;44185;47.844;8.966;2024-03-23T06:28:18;62702.47;;;7.66;100.00
58385;BME280;44185;47.844;8.966;2024-03-23T06:30:43;62710.22;;;7.73;100.00
58385;BME280;44185;47.844;8.966;2024-03-23T06:33:09;62712.63;;;7.78;100.00
58385;BME280;44185;47.844;8.966;2024-03-23T06:35:34;62725.78;;;7.88;100.00
58385;BME280;44185;47.844;8.966;2024-03-23T06:38:01;62730.41;;;7.95;100.00
58385;BME280;44185;47.844;8.966;2024-03-23T06:40:27;62747.47;;;8.08;100.00
58385;BME280;44185;47.844;8.966;2024-03-23T06:42:52;62751.34;;;8.12;100.00
58385;BME280;44185;47.844;8.966;2024-03-23T06:45:18;62760.22;;;8.20;100.00
58385;BME280;44185;47.844;8.966;2024-03-23T06:47:43;62764.69;;;8.25;100.00
58385;BME280;44185;47.844;8.966;2024-03-23T06:50:09;62775.00;;;8.39;100.00
58385;BME280;44185;47.844;8.966;2024-03-23T06:52:34;62788.75;;;8.50;100.00
58385;BME280;44185;47.844;8.966;2024-03-23T06:55:01;62804.16;;;8.62;100.00
58385;BME280;44185;47.844;8.966;2024-03-23T06:57:27;62812.50;;;8.70;100.00
58385;BME280;44185;47.844;8.966;2024-03-23T06:59:52;62813.78;;;8.73;100.00
58385;BME280;44185;47.844;8.966;2024-03-23T07:02:18;62823.06;;;8.79;100.00
58385;BME280;44185;47.844;8.966;2024-03-23T07:04:43;62825.28;;;8.82;100.00
58385;BME280;44185;47.844;8.966;2024-03-23T07:07:09;62835.31;;;8.91;100.00
58385;BME280;44185;47.844;8.966;2024-03-23T07:09:34;62844.75;;;9.00;100.00
58385;BME280;44185;47.844;8.966;2024-03-23T07:12:01;62855.34;;;9.10;100.00
58385;BME280;44185;47.844;8.966;2024-03-23T07:14:27;62870.50;;;9.27;100.00
58385;BME280;44185;47.844;8.966;2024-03-23T07:16:52;62875.91;;;9.29;100.00
58385;BME280;44185;47.844;8.966;2024-03-23T07:19:18;62876.47;;;9.30;100.00
58385;BME280;44185;47.844;8.966;2024-03-23T07:21:43;62869.97;;;9.26;100.00
58385;BME280;44185;47.844;8.966;2024-03-23T07:24:09;62872.03;;;9.26;100.00
58385;BME280;44185;47.844;8.966;2024-03-23T07:26:35;62864.41;;;9.21;100.00
58385;BME280;44185;47.844;8.966;2024-03-23T07:29:02;62866.63;;;9.23;100.00
58385;BME280;44185;47.844;8.966;2024-03-23T07:31:27;62869.78;;;9.23;100.00
58385;BME280;44185;47.844;8.966;2024-03-23T07:33:53;62864.00;;;9.23;100.00
58385;BME280;44185;47.844;8.966;2024-03-23T07:36:18;62866.47;;;9.20;100.00
58385;BME280;44185;47.844;8.966;2024-03-23T07:38:44;62838.66;;;8.94;100.00
58385;BME280;44185;47.844;8.966;2024-03-23T07:41:10;62825.84;;;8.82;100.00
58385;BME280;44185;47.844;8.966;2024-03-23T07:43:37;62816.00;;;8.75;100.00
58385;BME280;44185;47.844;8.966;2024-03-23T07:46:04;62811.56;;;8.71;100.00
58385;BME280;44185;47.844;8.966;2024-03-23T07:48:30;62809.16;;;8.66;100.00
58385;BME280;44185;47.844;8.966;2024-03-23T07:50:58;62795.41;;;8.56;100.00
58385;BME280;44185;47.844;8.966;2024-03-23T07:53:23;62783.56;;;8.42;100.00
58385;BME280;44185;47.844;8.966;2024-03-23T07:55:53;62768.03;;;8.28;97.45
58385;BME280;44185;47.844;8.966;2024-03-23T07:58:19;62768.03;;;8.28;97.12
58385;BME280;44185;47.844;8.966;2024-03-23T08:00:44;62764.69;;;8.25;93.17
58385;BME280;44185;47.844;8.966;2024-03-23T08:03:11;62758.72;;;8.21;93.52
58385;BME280;44185;47.844;8.966;2024-03-23T08:05:36;62745.81;;;8.07;92.59
58385;BME280;44185;47.844;8.966;2024-03-23T08:08:02;62738.00;;;7.99;93.19
58385;BME280;44185;47.844;8.966;2024-03-23T08:10:28;62731.34;;;7.93;91.00
58385;BME280;44185;47.844;8.966;2024-03-23T08:12:53;62724.69;;;7.87;92.65
58385;BME280;44185;47.844;8.966;2024-03-23T08:15:18;62701.50;;;7.67;94.43
58385;BME280;44185;47.844;8.966;2024-03-23T08:17:44;62697.63;;;7.64;94.56
58385;BME280;44185;47.844;8.966;2024-03-23T08:20:12;62683.59;;;7.48;97.06
58385;BME280;44185;47.844;8.966;2024-03-23T08:22:37;62685.81;;;7.50;94.59
58385;BME280;44185;47.844;8.966;2024-03-23T08:25:03;62683.03;;;7.48;93.74
58385;BME280;44185;47.844;8.966;2024-03-23T08:27:28;62689.13;;;7.53;92.79
58385;BME280;44185;47.844;8.966;2024-03-23T08:29:54;62685.81;;;7.50;91.62
58385;BME280;44185;47.844;8.966;2024-03-23T08:32:19;62682.47;;;7.47;91.22
58385;BME280;44185;47.844;8.966;2024-03-23T08:34:45;62686.53;;;7.53;94.77
58385;BME280;44185;47.844;8.966;2024-03-23T08:37:12;62692.44;;;7.56;94.85
58385;BME280;44185;47.844;8.966;2024-03-23T08:39:37;62692.44;;;7.56;95.02
58385;BME280;44185;47.844;8.966;2024-03-23T08:42:03;62693.56;;;7.57;93.32
58385;BME280;44185;47.844;8.966;2024-03-23T08:44:28;62690.22;;;7.54;93.78
58385;BME280;44185;47.844;8.966;2024-03-23T08:46:55;62693.56;;;7.57;94.15
58385;BME280;44185;47.844;8.966;2024-03-23T08:49:21;62681.34;;;7.46;94.09
58385;BME280;44185;47.844;8.966;2024-03-23T08:51:46;62685.81;;;7.50;95.21
58385;BME280;44185;47.844;8.966;2024-03-23T08:54:13;62698.00;;;7.62;95.25
58385;BME280;44185;47.844;8.966;2024-03-23T08:56:39;62705.78;;;7.69;94.76
58385;BME280;44185;47.844;8.966;2024-03-23T08:59:04;62714.69;;;7.77;92.16
58385;BME280;44185;47.844;8.966;2024-03-23T09:01:30;62716.91;;;7.79;89.97
58385;BME280;44185;47.844;8.966;2024-03-23T09:03:55;62703.75;;;7.70;88.13
58385;BME280;44185;47.844;8.966;2024-03-23T09:06:20;62688.00;;;7.52;87.53
58385;BME280;44185;47.844;8.966;2024-03-23T09:08:46;62680.25;;;7.45;89.38
58385;BME280;44185;47.844;8.966;2024-03-23T09:11:13;62660.41;;;7.29;84.73
58385;BME280;44185;47.844;8.966;2024-03-23T09:13:39;62659.13;;;7.25;82.63
58385;BME280;44185;47.844;8.966;2024-03-23T09:16:06;62653.03;;;7.19;82.49
58385;BME280;44185;47.844;8.966;2024-03-23T09:18:32;62651.38;;;7.18;83.92
58385;BME280;44185;47.844;8.966;2024-03-23T09:20:58;62645.81;;;7.12;82.64
58385;BME280;44185;47.844;8.966;2024-03-23T09:23:23;62651.38;;;7.18;84.25
58385;BME280;44185;47.844;8.966;2024-03-23T09:25:49;62645.44;;;7.15;84.26
58385;BME280;44185;47.844;8.966;2024-03-23T09:28:16;62650.81;;;7.17;81.67
58385;BME280;44185;47.844;8.966;2024-03-23T09:30:41;62638.59;;;7.06;79.06
58385;BME280;44185;47.844;8.966;2024-03-23T09:33:07;62644.31;;;7.14;79.29
58385;BME280;44185;47.844;8.966;2024-03-23T09:35:32;62643.59;;;7.10;77.27
58385;BME280;44185;47.844;8.966;2024-03-23T09:38:01;62653.59;;;7.20;78.26
58385;BME280;44185;47.844;8.966;2024-03-23T09:40:27;62682.47;;;7.47;78.73
58385;BME280;44185;47.844;8.966;2024-03-23T09:42:52;62695.78;;;7.60;75.52
58385;BME280;44185;47.844;8.966;2024-03-23T09:45:22;62694.13;;;7.58;74.75
58385;BME280;44185;47.844;8.966;2024-03-23T09:47:47;62693.56;;;7.57;73.94
58385;BME280;44185;47.844;8.966;2024-03-23T09:50:13;62688.56;;;7.53;71.75
58385;BME280;44185;47.844;8.966;2024-03-23T09:52:39;62699.69;;;7.63;72.06
58385;BME280;44185;47.844;8.966;2024-03-23T09:55:04;62713.00;;;7.76;70.54
58385;BME280;44185;47.844;8.966;2024-03-23T09:57:30;62706.91;;;7.70;68.56
58385;BME280;44185;47.844;8.966;2024-03-23T09:59:55;62706.34;;;7.70;68.19
58385;BME280;44185;47.844;8.966;2024-03-23T10:02:22;62717.06;;;7.82;69.48
58385;BME280;44185;47.844;8.966;2024-03-23T10:04:48;62719.69;;;7.82;67.14
58385;BME280;44185;47.844;8.966;2024-03-23T10:07:15;62706.91;;;7.70;62.17
58385;BME280;44185;47.844;8.966;2024-03-23T10:09:40;62721.91;;;7.84;64.68
58385;BME280;44185;47.844;8.966;2024-03-23T10:12:10;62726.34;;;7.88;65.05
58385;BME280;44185;47.844;8.966;2024-03-23T10:14:35;62724.13;;;7.86;63.77
58385;BME280;44185;47.844;8.966;2024-03-23T10:17:12;62739.69;;;8.01;64.74
58385;BME280;44185;47.844;8.966;2024-03-23T10:19:39;62744.13;;;8.05;63.90
58385;BME280;44185;47.844;8.966;2024-03-23T10:22:04;62744.69;;;8.06;64.72
58385;BME280;44185;47.844;8.966;2024-03-23T10:24:30;62760.78;;;8.21;66.22
58385;BME280;44185;47.844;8.966;2024-03-23T10:26:56;62809.16;;;8.66;66.06
58385;BME280;44185;47.844;8.966;2024-03-23T10:29:22;62825.28;;;8.82;64.21
58385;BME280;44185;47.844;8.966;2024-03-23T10:31:47;62798.78;;;8.59;64.47
58385;BME280;44185;47.844;8.966;2024-03-23T10:34:12;62797.47;;;8.55;63.63
58385;BME280;44185;47.844;8.966;2024-03-23T10:36:40;62810.44;;;8.70;64.06
58385;BME280;44185;47.844;8.966;2024-03-23T10:39:07;62798.03;;;8.56;64.24
58385;BME280;44185;47.844;8.966;2024-03-23T10:41:33;62801.00;;;8.61;63.98
58385;BME280;44185;47.844;8.966;2024-03-23T10:43:58;62824.75;;;8.81;63.13
58385;BME280;44185;47.844;8.966;2024-03-23T10:46:24;62838.66;;;8.94;64.86
58385;BME280;44185;47.844;8.966;2024-03-23T10:48:50;62861.44;;;9.16;62.86
58385;BME280;44185;47.844;8.966;2024-03-23T10:51:15;62836.41;;;8.92;61.08
58385;BME280;44185;47.844;8.966;2024-03-23T10:53:42;62831.41;;;8.87;61.72
58385;BME280;44185;47.844;8.966;2024-03-23T10:56:08;62831.00;;;8.89;63.60
58385;BME280;44185;47.844;8.966;2024-03-23T10:58:37;62826.56;;;8.85;62.69
58385;BME280;44185;47.844;8.966;2024-03-23T11:01:03;62867.00;;;9.21;61.58
58385;BME280;44185;47.844;8.966;2024-03-23T11:03:30;62891.09;;;9.46;61.13
58385;BME280;44185;47.844;8.966;2024-03-23T11:05:55;62879.41;;;9.35;60.76
58385;BME280;44185;47.844;8.966;2024-03-23T11:08:30;62894.44;;;9.49;57.74
58385;BME280;44185;47.844;8.966;2024-03-23T11:11:11;62934.88;;;9.85;55.09
58385;BME280;44185;47.844;8.966;2024-03-23T11:13:37;62941.00;;;9.90;55.82
58385;BME280;44185;47.844;8.966;2024-03-23T11:16:12;62966.59;;;10.15;56.23
58385;BME280;44185;47.844;8.966;2024-03-23T11:18:38;63005.75;;;10.54;55.30
58385;BME280;44185;47.844;8.966;2024-03-23T11:21:03;63052.97;;;10.96;56.76
58385;BME280;44185;47.844;8.966;2024-03-23T11:23:29;63073.72;;;11.18;52.39
58385;BME280;44185;47.844;8.966;2024-03-23T11:25:54;63098.09;;;11.38;51.18
58385;BME280;44185;47.844;8.966;2024-03-23T11:28:21;63080.59;;;11.27;50.20
58385;BME280;44185;47.844;8.966;2024-03-23T11:30:47;63113.84;;;11.55;49.92
58385;BME280;44185;47.844;8.966;2024-03-23T11:33:12;63086.97;;;11.28;49.24
58385;BME280;44185;47.844;8.966;2024-03-23T11:35:39;63119.28;;;11.58;47.53
58385;BME280;44185;47.844;8.966;2024-03-23T11:38:06;63044.78;;;10.90;46.56
58385;BME280;44185;47.844;8.966;2024-03-23T11:40:32;63106.06;;;11.48;48.92
58385;BME280;44185;47.844;8.966;2024-03-23T11:42:58;63128.50;;;11.72;49.40
58385;BME280;44185;47.844;8.966;2024-03-23T11:45:25;63155.81;;;11.97;47.22
58385;BME280;44185;47.844;8.966;2024-03-23T11:48:02;63113.13;;;11.52;47.50
58385;BME280;44185;47.844;8.966;2024-03-23T11:50:27;63125.41;;;11.64;46.84
58385;BME280;44185;47.844;8.966;2024-03-23T11:52:53;63102.16;;;11.44;46.59
58385;BME280;44185;47.844;8.966;2024-03-23T11:55:18;63137.69;;;11.75;47.43
58385;BME280;44185;47.844;8.966;2024-03-23T11:57:43;63135.22;;;11.78;45.94
58385;BME280;44185;47.844;8.966;2024-03-23T12:00:22;63087.13;;;11.30;46.89
58385;BME280;44185;47.844;8.966;2024-03-23T12:02:48;63074.28;;;11.18;46.48
58385;BME280;44185;47.844;8.966;2024-03-23T12:05:15;63033.63;;;10.80;47.27
58385;BME280;44185;47.844;8.966;2024-03-23T12:07:40;62985.00;;;10.32;46.94
58385;BME280;44185;47.844;8.966;2024-03-23T12:10:07;62943.94;;;9.96;48.10
58385;BME280;44185;47.844;8.966;2024-03-23T12:12:32;62931.16;;;9.84;49.57
58385;BME280;44185;47.844;8.966;2024-03-23T12:15:02;62899.44;;;9.54;55.04
58385;BME280;44185;47.844;8.966;2024-03-23T12:17:27;62790.25;;;8.49;62.00
58385;BME280;44185;47.844;8.966;2024-03-23T12:19:54;62748.56;;;8.09;65.94
58385;BME280;44185;47.844;8.966;2024-03-23T12:22:20;62749.13;;;8.10;66.45
58385;BME280;44185;47.844;8.966;2024-03-23T12:24:45;62735.78;;;7.97;68.93
58385;BME280;44185;47.844;8.966;2024-03-23T12:27:11;62764.13;;;8.24;68.39
58385;BME280;44185;47.844;8.966;2024-03-23T12:29:36;62760.78;;;8.21;70.15
58385;BME280;44185;47.844;8.966;2024-03-23T12:32:02;62704.69;;;7.68;68.73
58385;BME280;44185;47.844;8.966;2024-03-23T12:34:28;62725.78;;;7.88;69.59
58385;BME280;44185;47.844;8.966;2024-03-23T12:36:56;62706.34;;;7.70;69.24
58385;BME280;44185;47.844;8.966;2024-03-23T12:39:21;62695.78;;;7.60;70.00
58385;BME280;44185;47.844;8.966;2024-03-23T12:41:47;62669.13;;;7.34;71.28
58385;BME280;44185;47.844;8.966;2024-03-23T12:44:12;62621.41;;;6.89;76.19
58385;BME280;44185;47.844;8.966;2024-03-23T12:46:38;62569.22;;;6.40;82.18
58385;BME280;44185;47.844;8.966;2024-03-23T12:49:03;62543.16;;;6.16;85.95
58385;BME280;44185;47.844;8.966;2024-03-23T12:51:29;62549.81;;;6.22;85.33
58385;BME280;44185;47.844;8.966;2024-03-23T12:53:56;62575.91;;;6.47;88.70
58385;BME280;44185;47.844;8.966;2024-03-23T12:56:21;62578.66;;;6.49;87.93
58385;BME280;44185;47.844;8.966;2024-03-23T12:58:46;62582.56;;;6.53;88.37
58385;BME280;44185;47.844;8.966;2024-03-23T13:01:12;62591.41;;;6.61;88.06
58385;BME280;44185;47.844;8.966;2024-03-23T13:03:37;62598.09;;;6.67;88.43
58385;BME280;44185;47.844;8.966;2024-03-23T13:06:03;62611.97;;;6.81;85.13
58385;BME280;44185;47.844;8.966;2024-03-23T13:08:29;62641.56;;;7.11;84.91
58385;BME280;44185;47.844;8.966;2024-03-23T13:10:55;62662.47;;;7.28;85.33
58385;BME280;44185;47.844;8.966;2024-03-23T13:13:21;62679.13;;;7.44;85.34
58385;BME280;44185;47.844;8.966;2024-03-23T13:15:49;62675.25;;;7.40;82.73
58385;BME280;44185;47.844;8.966;2024-03-23T13:18:15;62679.13;;;7.44;81.34
58385;BME280;44185;47.844;8.966;2024-03-23T13:20:40;62695.22;;;7.59;80.56
58385;BME280;44185;47.844;8.966;2024-03-23T13:23:06;62688.56;;;7.53;79.63
58385;BME280;44185;47.844;8.966;2024-03-23T13:25:31;62720.25;;;7.83;78.23
58385;BME280;44185;47.844;8.966;2024-03-23T13:27:58;62784.69;;;8.43;74.55
58385;BME280;44185;47.844;8.966;2024-03-23T13:30:24;62788.56;;;8.47;71.18
58385;BME280;44185;47.844;8.966;2024-03-23T13:32:49;62849.22;;;9.04;71.51
58385;BME280;44185;47.844;8.966;2024-03-23T13:35:15;62818.22;;;8.77;72.50
58385;BME280;44185;47.844;8.966;2024-03-23T13:37:40;62838.66;;;8.94;74.36
58385;BME280;44185;47.844;8.966;2024-03-23T13:40:07;62826.97;;;8.83;73.17
58385;BME280;44185;47.844;8.966;2024-03-23T13:42:33;62800.25;;;8.58;65.94
58385;BME280;44185;47.844;8.966;2024-03-23T13:45:00;62780.25;;;8.39;66.27
58385;BME280;44185;47.844;8.966;2024-03-23T13:47:25;62777.47;;;8.37;66.46
58385;BME280;44185;47.844;8.966;2024-03-23T13:49:50;62814.16;;;8.71;66.90